sensor_id;sensor_type;location;lat;lon;timestamp;temperature;humidity
13569;DHT22;6856;51.460;7.158;2022-12-29T00:07:15;12.90;72.90
13569;DHT22;6856;51.460;7.158;2022-12-29T00:09:50;13.00;72.30
13569;DHT22;6856;51.460;7.158;2022-12-29T00:12:23;13.00;72.20
13569;DHT22;6856;51.460;7.158;2022-12-29T00:15:17;13.00;72.10
13569;DHT22;6856;51.460;7.158;2022-12-29T00:18:09;13.00;72.00
13569;DHT22;6856;51.460;7.158;2022-12-29T00:20:44;13.10;72.10
13569;DHT22;6856;51.460;7.158;2022-12-29T00:23:36;13.10;72.00
13569;DHT22;6856;51.460;7.158;2022-12-29T00:30:44;13.10;72.50
13569;DHT22;6856;51.460;7.158;2022-12-29T00:33:35;13.10;71.90
13569;DHT22;6856;51.460;7.158;2022-12-29T00:36:32;13.10;71.60
13569;DHT22;6856;51.460;7.158;2022-12-29T00:39:11;13.10;72.20
13569;DHT22;6856;51.460;7.158;2022-12-29T00:42:05;13.00;72.10
13569;DHT22;6856;51.460;7.158;2022-12-29T00:44:58;13.00;72.00
13569;DHT22;6856;51.460;7.158;2022-12-29T00:47:33;13.10;72.10
13569;DHT22;6856;51.460;7.158;2022-12-29T00:50:07;13.00;72.10
13569;DHT22;6856;51.460;7.158;2022-12-29T00:52:40;13.00;72.00
13569;DHT22;6856;51.460;7.158;2022-12-29T00:59:51;13.00;72.90
13569;DHT22;6856;51.460;7.158;2022-12-29T01:02:24;13.10;72.30
13569;DHT22;6856;51.460;7.158;2022-12-29T01:04:59;13.00;72.40
13569;DHT22;6856;51.460;7.158;2022-12-29T01:07:35;13.20;72.70
13569;DHT22;6856;51.460;7.158;2022-12-29T01:10:09;13.10;72.50
13569;DHT22;6856;51.460;7.158;2022-12-29T01:12:41;13.10;72.60
13569;DHT22;6856;51.460;7.158;2022-12-29T01:15:17;13.10;72.70
13569;DHT22;6856;51.460;7.158;2022-12-29T01:17:51;13.10;72.80
13569;DHT22;6856;51.460;7.158;2022-12-29T01:20:26;13.10;72.90
13569;DHT22;6856;51.460;7.158;2022-12-29T01:27:36;13.10;73.50
13569;DHT22;6856;51.460;7.158;2022-12-29T01:30:10;13.10;73.00
13569;DHT22;6856;51.460;7.158;2022-12-29T01:32:45;13.20;73.20
13569;DHT22;6856;51.460;7.158;2022-12-29T01:35:18;13.20;72.90
13569;DHT22;6856;51.460;7.158;2022-12-29T01:37:54;13.20;72.70
13569;DHT22;6856;51.460;7.158;2022-12-29T01:45:09;13.30;73.40
13569;DHT22;6856;51.460;7.158;2022-12-29T01:47:47;13.30;72.90
13569;DHT22;6856;51.460;7.158;2022-12-29T01:50:26;13.30;72.80
13569;DHT22;6856;51.460;7.158;2022-12-29T01:53:08;13.30;72.80
13569;DHT22;6856;51.460;7.158;2022-12-29T01:55:48;13.30;72.70
13569;DHT22;6856;51.460;7.158;2022-12-29T01:58:28;13.40;72.80
13569;DHT22;6856;51.460;7.158;2022-12-29T02:01:05;13.40;73.30
13569;DHT22;6856;51.460;7.158;2022-12-29T02:03:39;13.40;72.60
13569;DHT22;6856;51.460;7.158;2022-12-29T02:06:16;13.40;72.40
13569;DHT22;6856;51.460;7.158;2022-12-29T02:13:30;13.50;72.60
13569;DHT22;6856;51.460;7.158;2022-12-29T02:16:13;13.50;72.00
13569;DHT22;6856;51.460;7.158;2022-12-29T02:19:06;13.50;72.10
13569;DHT22;6856;51.460;7.158;2022-12-29T02:26:34;13.50;71.90
13569;DHT22;6856;51.460;7.158;2022-12-29T02:29:39;13.60;71.80
13569;DHT22;6856;51.460;7.158;2022-12-29T02:32:31;13.60;71.60
13569;DHT22;6856;51.460;7.158;2022-12-29T02:35:23;13.60;71.50
13569;DHT22;6856;51.460;7.158;2022-12-29T02:38:09;13.60;71.50
13569;DHT22;6856;51.460;7.158;2022-12-29T02:40:54;13.60;71.40
13569;DHT22;6856;51.460;7.158;2022-12-29T02:43:35;13.60;71.20
13569;DHT22;6856;51.460;7.158;2022-12-29T02:50:55;13.70;71.00
13569;DHT22;6856;51.460;7.158;2022-12-29T02:58:17;13.70;70.50
13569;DHT22;6856;51.460;7.158;2022-12-29T03:01:06;13.80;70.20
13569;DHT22;6856;51.460;7.158;2022-12-29T03:08:14;13.80;69.90
13569;DHT22;6856;51.460;7.158;2022-12-29T03:15:34;13.80;69.40
13569;DHT22;6856;51.460;7.158;2022-12-29T03:18:41;13.90;69.60
13569;DHT22;6856;51.460;7.158;2022-12-29T03:25:41;13.90;69.30
13569;DHT22;6856;51.460;7.158;2022-12-29T03:28:21;13.90;69.10
13569;DHT22;6856;51.460;7.158;2022-12-29T03:35:34;13.90;68.90
13569;DHT22;6856;51.460;7.158;2022-12-29T03:38:13;14.00;68.90
13569;DHT22;6856;51.460;7.158;2022-12-29T03:45:26;14.00;68.70
13569;DHT22;6856;51.460;7.158;2022-12-29T03:48:00;14.00;68.40
13569;DHT22;6856;51.460;7.158;2022-12-29T03:55:10;14.00;68.70
13569;DHT22;6856;51.460;7.158;2022-12-29T03:57:44;14.00;68.30
13569;DHT22;6856;51.460;7.158;2022-12-29T04:00:18;14.00;68.40
13569;DHT22;6856;51.460;7.158;2022-12-29T04:02:53;14.00;68.50
13569;DHT22;6856;51.460;7.158;2022-12-29T04:05:27;14.00;68.50
13569;DHT22;6856;51.460;7.158;2022-12-29T04:08:01;14.00;68.50
13569;DHT22;6856;51.460;7.158;2022-12-29T04:10:35;14.00;69.20
13569;DHT22;6856;51.460;7.158;2022-12-29T04:17:45;14.00;68.70
13569;DHT22;6856;51.460;7.158;2022-12-29T04:24:56;14.00;68.60
13569;DHT22;6856;51.460;7.158;2022-12-29T04:32:06;13.90;68.60
13569;DHT22;6856;51.460;7.158;2022-12-29T04:34:40;13.90;68.20
13569;DHT22;6856;51.460;7.158;2022-12-29T04:37:14;13.90;68.10
13569;DHT22;6856;51.460;7.158;2022-12-29T04:39:47;13.90;68.30
13569;DHT22;6856;51.460;7.158;2022-12-29T04:46:58;13.90;68.60
13569;DHT22;6856;51.460;7.158;2022-12-29T04:49:34;13.90;68.00
13569;DHT22;6856;51.460;7.158;2022-12-29T04:52:07;14.00;68.30
13569;DHT22;6856;51.460;7.158;2022-12-29T04:54:41;14.00;68.00
13569;DHT22;6856;51.460;7.158;2022-12-29T04:57:15;14.00;68.80
13569;DHT22;6856;51.460;7.158;2022-12-29T05:09:00;14.10;68.10
13569;DHT22;6856;51.460;7.158;2022-12-29T05:11:34;14.10;67.80
13569;DHT22;6856;51.460;7.158;2022-12-29T05:14:08;14.10;67.60
13569;DHT22;6856;51.460;7.158;2022-12-29T05:16:42;14.20;68.20
13569;DHT22;6856;51.460;7.158;2022-12-29T05:19:15;14.20;67.70
13569;DHT22;6856;51.460;7.158;2022-12-29T05:21:49;14.20;67.40
13569;DHT22;6856;51.460;7.158;2022-12-29T05:28:59;14.20;67.40
13569;DHT22;6856;51.460;7.158;2022-12-29T05:36:09;14.30;67.10
13569;DHT22;6856;51.460;7.158;2022-12-29T05:38:43;14.30;67.00
13569;DHT22;6856;51.460;7.158;2022-12-29T05:41:17;14.30;66.60
13569;DHT22;6856;51.460;7.158;2022-12-29T05:43:51;14.30;67.40
13569;DHT22;6856;51.460;7.158;2022-12-29T05:46:26;14.30;66.60
13569;DHT22;6856;51.460;7.158;2022-12-29T05:49:00;14.40;66.60
13569;DHT22;6856;51.460;7.158;2022-12-29T05:51:34;14.40;66.30
13569;DHT22;6856;51.460;7.158;2022-12-29T05:54:07;14.40;67.00
13569;DHT22;6856;51.460;7.158;2022-12-29T05:56:41;14.40;66.80
13569;DHT22;6856;51.460;7.158;2022-12-29T05:59:14;14.40;66.40
13569;DHT22;6856;51.460;7.158;2022-12-29T06:06:25;14.40;66.80
13569;DHT22;6856;51.460;7.158;2022-12-29T06:08:58;14.40;66.50
13569;DHT22;6856;51.460;7.158;2022-12-29T06:11:32;14.40;65.90
13569;DHT22;6856;51.460;7.158;2022-12-29T06:18:42;14.30;66.40
13569;DHT22;6856;51.460;7.158;2022-12-29T06:25:53;14.30;66.40
13569;DHT22;6856;51.460;7.158;2022-12-29T06:28:27;14.30;65.60
13569;DHT22;6856;51.460;7.158;2022-12-29T06:31:01;14.20;66.20
13569;DHT22;6856;51.460;7.158;2022-12-29T06:33:35;14.30;66.10
13569;DHT22;6856;51.460;7.158;2022-12-29T06:36:09;14.30;65.70
13569;DHT22;6856;51.460;7.158;2022-12-29T06:38:42;14.30;65.90
13569;DHT22;6856;51.460;7.158;2022-12-29T06:45:52;14.30;65.70
13569;DHT22;6856;51.460;7.158;2022-12-29T06:48:26;14.30;64.30
13569;DHT22;6856;51.460;7.158;2022-12-29T06:51:00;14.30;65.30
13569;DHT22;6856;51.460;7.158;2022-12-29T06:58:10;14.00;65.30
13569;DHT22;6856;51.460;7.158;2022-12-29T07:00:44;14.30;65.10
13569;DHT22;6856;51.460;7.158;2022-12-29T07:03:20;14.30;65.20
13569;DHT22;6856;51.460;7.158;2022-12-29T07:05:56;14.10;64.90
13569;DHT22;6856;51.460;7.158;2022-12-29T07:08:36;14.30;65.10
13569;DHT22;6856;51.460;7.158;2022-12-29T07:11:11;14.30;64.90
13569;DHT22;6856;51.460;7.158;2022-12-29T07:13:45;14.30;64.80
13569;DHT22;6856;51.460;7.158;2022-12-29T07:16:20;14.30;64.60
13569;DHT22;6856;51.460;7.158;2022-12-29T07:23:32;14.30;64.50
13569;DHT22;6856;51.460;7.158;2022-12-29T07:26:09;14.30;64.20
13569;DHT22;6856;51.460;7.158;2022-12-29T07:28:47;14.30;64.40
13569;DHT22;6856;51.460;7.158;2022-12-29T07:36:04;14.30;64.60
13569;DHT22;6856;51.460;7.158;2022-12-29T07:43:15;14.20;64.10
13569;DHT22;6856;51.460;7.158;2022-12-29T07:45:49;14.20;63.30
13569;DHT22;6856;51.460;7.158;2022-12-29T07:48:23;14.10;63.50
13569;DHT22;6856;51.460;7.158;2022-12-29T07:50:57;14.20;63.70
13569;DHT22;6856;51.460;7.158;2022-12-29T07:53:31;13.90;63.10
13569;DHT22;6856;51.460;7.158;2022-12-29T07:56:05;14.10;63.10
13569;DHT22;6856;51.460;7.158;2022-12-29T08:03:17;14.10;63.30
13569;DHT22;6856;51.460;7.158;2022-12-29T08:05:52;14.10;63.30
13569;DHT22;6856;51.460;7.158;2022-12-29T08:08:27;14.10;63.60
13569;DHT22;6856;51.460;7.158;2022-12-29T08:11:01;14.10;63.50
13569;DHT22;6856;51.460;7.158;2022-12-29T08:13:38;14.10;63.50
13569;DHT22;6856;51.460;7.158;2022-12-29T08:16:11;14.10;63.10
13569;DHT22;6856;51.460;7.158;2022-12-29T08:18:47;14.10;62.80
13569;DHT22;6856;51.460;7.158;2022-12-29T08:21:21;14.10;63.00
13569;DHT22;6856;51.460;7.158;2022-12-29T08:23:55;14.10;63.00
13569;DHT22;6856;51.460;7.158;2022-12-29T08:26:29;14.10;62.90
13569;DHT22;6856;51.460;7.158;2022-12-29T08:29:02;14.10;62.80
13569;DHT22;6856;51.460;7.158;2022-12-29T08:31:48;14.10;62.80
13569;DHT22;6856;51.460;7.158;2022-12-29T08:34:24;14.10;62.40
13569;DHT22;6856;51.460;7.158;2022-12-29T08:36:59;14.10;62.50
13569;DHT22;6856;51.460;7.158;2022-12-29T08:39:34;14.10;62.70
13569;DHT22;6856;51.460;7.158;2022-12-29T08:42:08;14.10;62.60
13569;DHT22;6856;51.460;7.158;2022-12-29T08:44:43;14.10;62.60
13569;DHT22;6856;51.460;7.158;2022-12-29T08:47:17;14.10;62.70
13569;DHT22;6856;51.460;7.158;2022-12-29T08:49:54;14.10;63.30
13569;DHT22;6856;51.460;7.158;2022-12-29T08:52:27;14.10;62.40
13569;DHT22;6856;51.460;7.158;2022-12-29T08:55:01;14.10;62.50
13569;DHT22;6856;51.460;7.158;2022-12-29T08:57:35;14.10;62.40
13569;DHT22;6856;51.460;7.158;2022-12-29T09:00:11;14.10;62.50
13569;DHT22;6856;51.460;7.158;2022-12-29T09:02:46;14.10;62.50
13569;DHT22;6856;51.460;7.158;2022-12-29T09:05:22;14.10;62.50
13569;DHT22;6856;51.460;7.158;2022-12-29T09:07:56;14.00;62.30
13569;DHT22;6856;51.460;7.158;2022-12-29T09:10:29;14.10;62.50
13569;DHT22;6856;51.460;7.158;2022-12-29T09:13:04;14.00;62.40
13569;DHT22;6856;51.460;7.158;2022-12-29T09:15:38;14.00;62.10
13569;DHT22;6856;51.460;7.158;2022-12-29T09:18:14;14.00;62.60
13569;DHT22;6856;51.460;7.158;2022-12-29T09:20:57;13.90;62.10
13569;DHT22;6856;51.460;7.158;2022-12-29T09:23:32;13.90;62.20
13569;DHT22;6856;51.460;7.158;2022-12-29T09:26:09;13.90;62.30
13569;DHT22;6856;51.460;7.158;2022-12-29T09:28:45;13.90;62.40
13569;DHT22;6856;51.460;7.158;2022-12-29T09:31:20;13.90;62.30
13569;DHT22;6856;51.460;7.158;2022-12-29T09:33:55;13.90;62.40
13569;DHT22;6856;51.460;7.158;2022-12-29T09:36:32;13.90;62.30
13569;DHT22;6856;51.460;7.158;2022-12-29T09:39:06;13.80;62.30
13569;DHT22;6856;51.460;7.158;2022-12-29T09:41:45;13.90;62.30
13569;DHT22;6856;51.460;7.158;2022-12-29T09:44:35;13.90;62.00
13569;DHT22;6856;51.460;7.158;2022-12-29T09:47:24;13.90;61.90
13569;DHT22;6856;51.460;7.158;2022-12-29T09:50:03;14.10;62.10
13569;DHT22;6856;51.460;7.158;2022-12-29T09:52:44;13.90;62.10
13569;DHT22;6856;51.460;7.158;2022-12-29T09:55:23;13.90;62.10
13569;DHT22;6856;51.460;7.158;2022-12-29T09:58:05;13.90;62.20
13569;DHT22;6856;51.460;7.158;2022-12-29T10:00:50;13.90;62.10
13569;DHT22;6856;51.460;7.158;2022-12-29T10:03:35;13.90;62.00
13569;DHT22;6856;51.460;7.158;2022-12-29T10:06:18;13.90;61.80
13569;DHT22;6856;51.460;7.158;2022-12-29T10:09:02;14.00;61.90
13569;DHT22;6856;51.460;7.158;2022-12-29T10:11:57;13.70;61.40
13569;DHT22;6856;51.460;7.158;2022-12-29T10:14:58;14.00;61.30
13569;DHT22;6856;51.460;7.158;2022-12-29T10:17:43;14.00;61.40
13569;DHT22;6856;51.460;7.158;2022-12-29T10:20:28;14.00;61.30
13569;DHT22;6856;51.460;7.158;2022-12-29T10:23:22;13.90;61.20
13569;DHT22;6856;51.460;7.158;2022-12-29T10:26:03;13.90;61.00
13569;DHT22;6856;51.460;7.158;2022-12-29T10:28:43;14.00;60.80
13569;DHT22;6856;51.460;7.158;2022-12-29T10:31:25;14.00;61.00
13569;DHT22;6856;51.460;7.158;2022-12-29T10:34:10;14.00;60.70
13569;DHT22;6856;51.460;7.158;2022-12-29T10:36:55;14.00;60.50
13569;DHT22;6856;51.460;7.158;2022-12-29T10:39:38;14.00;60.60
13569;DHT22;6856;51.460;7.158;2022-12-29T10:42:25;14.00;60.40
13569;DHT22;6856;51.460;7.158;2022-12-29T10:45:00;14.00;60.10
13569;DHT22;6856;51.460;7.158;2022-12-29T10:47:38;13.70;59.30
13569;DHT22;6856;51.460;7.158;2022-12-29T10:50:27;14.10;60.00
13569;DHT22;6856;51.460;7.158;2022-12-29T10:53:05;14.10;60.30
13569;DHT22;6856;51.460;7.158;2022-12-29T10:55:42;14.10;60.00
13569;DHT22;6856;51.460;7.158;2022-12-29T10:58:20;13.90;59.70
13569;DHT22;6856;51.460;7.158;2022-12-29T11:00:55;14.10;59.70
13569;DHT22;6856;51.460;7.158;2022-12-29T11:03:46;14.10;59.60
13569;DHT22;6856;51.460;7.158;2022-12-29T11:06:27;14.10;59.20
13569;DHT22;6856;51.460;7.158;2022-12-29T11:09:09;14.10;59.60
13569;DHT22;6856;51.460;7.158;2022-12-29T11:11:48;14.10;59.30
13569;DHT22;6856;51.460;7.158;2022-12-29T11:14:28;14.10;59.40
13569;DHT22;6856;51.460;7.158;2022-12-29T11:17:04;14.10;59.20
13569;DHT22;6856;51.460;7.158;2022-12-29T11:19:39;14.10;59.40
13569;DHT22;6856;51.460;7.158;2022-12-29T11:22:20;14.10;59.30
13569;DHT22;6856;51.460;7.158;2022-12-29T11:25:06;14.10;59.50
13569;DHT22;6856;51.460;7.158;2022-12-29T11:27:59;14.10;59.50
13569;DHT22;6856;51.460;7.158;2022-12-29T11:30:37;14.10;59.40
13569;DHT22;6856;51.460;7.158;2022-12-29T11:33:17;14.10;59.30
13569;DHT22;6856;51.460;7.158;2022-12-29T11:35:50;14.00;59.20
13569;DHT22;6856;51.460;7.158;2022-12-29T11:38:34;14.00;59.20
13569;DHT22;6856;51.460;7.158;2022-12-29T11:41:13;14.00;59.30
13569;DHT22;6856;51.460;7.158;2022-12-29T11:43:56;14.00;59.30
13569;DHT22;6856;51.460;7.158;2022-12-29T11:46:37;14.00;59.20
13569;DHT22;6856;51.460;7.158;2022-12-29T11:49:13;14.00;59.60
13569;DHT22;6856;51.460;7.158;2022-12-29T11:51:55;14.00;59.10
13569;DHT22;6856;51.460;7.158;2022-12-29T11:54:31;14.00;59.20
13569;DHT22;6856;51.460;7.158;2022-12-29T11:57:12;14.00;59.10
13569;DHT22;6856;51.460;7.158;2022-12-29T11:59:51;14.00;59.10
13569;DHT22;6856;51.460;7.158;2022-12-29T12:02:41;14.00;59.10
13569;DHT22;6856;51.460;7.158;2022-12-29T12:05:24;14.00;58.80
13569;DHT22;6856;51.460;7.158;2022-12-29T12:08:09;14.00;59.00
13569;DHT22;6856;51.460;7.158;2022-12-29T12:10:55;14.00;59.00
13569;DHT22;6856;51.460;7.158;2022-12-29T12:13:37;14.10;59.10
13569;DHT22;6856;51.460;7.158;2022-12-29T12:16:18;14.00;59.00
13569;DHT22;6856;51.460;7.158;2022-12-29T12:19:02;14.00;58.80
13569;DHT22;6856;51.460;7.158;2022-12-29T12:21:50;14.00;58.80
13569;DHT22;6856;51.460;7.158;2022-12-29T12:24:41;14.00;58.60
13569;DHT22;6856;51.460;7.158;2022-12-29T12:27:22;14.00;58.60
13569;DHT22;6856;51.460;7.158;2022-12-29T12:30:02;14.00;58.80
13569;DHT22;6856;51.460;7.158;2022-12-29T12:32:46;14.00;59.40
13569;DHT22;6856;51.460;7.158;2022-12-29T12:35:34;14.00;58.70
13569;DHT22;6856;51.460;7.158;2022-12-29T12:38:26;14.00;58.60
13569;DHT22;6856;51.460;7.158;2022-12-29T12:41:10;14.00;58.70
13569;DHT22;6856;51.460;7.158;2022-12-29T12:43:58;14.00;58.70
13569;DHT22;6856;51.460;7.158;2022-12-29T12:47:00;14.00;58.60
13569;DHT22;6856;51.460;7.158;2022-12-29T12:50:15;14.20;58.80
13569;DHT22;6856;51.460;7.158;2022-12-29T12:59:33;14.00;58.80
13569;DHT22;6856;51.460;7.158;2022-12-29T13:02:27;13.90;58.90
13569;DHT22;6856;51.460;7.158;2022-12-29T13:05:29;13.90;58.90
13569;DHT22;6856;51.460;7.158;2022-12-29T13:11:52;13.90;58.70
13569;DHT22;6856;51.460;7.158;2022-12-29T13:14:47;13.90;58.80
13569;DHT22;6856;51.460;7.158;2022-12-29T13:17:39;13.90;58.70
13569;DHT22;6856;51.460;7.158;2022-12-29T13:20:25;13.90;58.80
13569;DHT22;6856;51.460;7.158;2022-12-29T13:23:16;13.90;58.70
13569;DHT22;6856;51.460;7.158;2022-12-29T13:29:22;13.90;58.60
13569;DHT22;6856;51.460;7.158;2022-12-29T13:32:18;13.90;58.70
13569;DHT22;6856;51.460;7.158;2022-12-29T13:35:08;13.90;58.60
13569;DHT22;6856;51.460;7.158;2022-12-29T13:38:00;13.90;58.70
13569;DHT22;6856;51.460;7.158;2022-12-29T13:41:04;13.90;58.60
13569;DHT22;6856;51.460;7.158;2022-12-29T13:43:46;13.90;58.60
13569;DHT22;6856;51.460;7.158;2022-12-29T13:46:28;13.90;58.70
13569;DHT22;6856;51.460;7.158;2022-12-29T13:49:13;13.90;58.80
13569;DHT22;6856;51.460;7.158;2022-12-29T13:51:52;13.90;59.40
13569;DHT22;6856;51.460;7.158;2022-12-29T13:54:35;13.80;58.70
13569;DHT22;6856;51.460;7.158;2022-12-29T13:57:31;13.80;58.80
13569;DHT22;6856;51.460;7.158;2022-12-29T14:00:17;13.80;58.70
13569;DHT22;6856;51.460;7.158;2022-12-29T14:03:11;13.70;58.90
13569;DHT22;6856;51.460;7.158;2022-12-29T14:06:11;13.70;58.70
13569;DHT22;6856;51.460;7.158;2022-12-29T14:08:48;13.70;58.90
13569;DHT22;6856;51.460;7.158;2022-12-29T14:11:30;13.70;59.00
13569;DHT22;6856;51.460;7.158;2022-12-29T14:14:16;13.70;59.00
13569;DHT22;6856;51.460;7.158;2022-12-29T14:17:09;13.60;59.40
13569;DHT22;6856;51.460;7.158;2022-12-29T14:19:51;13.70;58.90
13569;DHT22;6856;51.460;7.158;2022-12-29T14:22:31;13.70;59.00
13569;DHT22;6856;51.460;7.158;2022-12-29T14:28:37;13.70;59.00
13569;DHT22;6856;51.460;7.158;2022-12-29T14:31:36;13.60;58.90
13569;DHT22;6856;51.460;7.158;2022-12-29T14:34:30;13.60;58.80
13569;DHT22;6856;51.460;7.158;2022-12-29T14:37:24;13.60;58.70
13569;DHT22;6856;51.460;7.158;2022-12-29T14:40:08;13.60;58.50
13569;DHT22;6856;51.460;7.158;2022-12-29T14:42:51;13.60;58.60
13569;DHT22;6856;51.460;7.158;2022-12-29T14:45:28;13.60;58.60
13569;DHT22;6856;51.460;7.158;2022-12-29T14:48:33;13.60;58.60
13569;DHT22;6856;51.460;7.158;2022-12-29T14:51:27;13.60;58.80
13569;DHT22;6856;51.460;7.158;2022-12-29T14:57:33;13.60;58.40
13569;DHT22;6856;51.460;7.158;2022-12-29T15:00:17;13.60;58.50
13569;DHT22;6856;51.460;7.158;2022-12-29T15:03:02;13.60;58.50
13569;DHT22;6856;51.460;7.158;2022-12-29T15:05:44;13.60;58.40
13569;DHT22;6856;51.460;7.158;2022-12-29T15:08:25;13.60;58.40
13569;DHT22;6856;51.460;7.158;2022-12-29T15:11:18;13.60;58.50
13569;DHT22;6856;51.460;7.158;2022-12-29T15:13:57;13.60;58.50
13569;DHT22;6856;51.460;7.158;2022-12-29T15:16:33;13.60;58.20
13569;DHT22;6856;51.460;7.158;2022-12-29T15:19:22;13.60;58.40
13569;DHT22;6856;51.460;7.158;2022-12-29T15:22:00;13.60;58.10
13569;DHT22;6856;51.460;7.158;2022-12-29T15:24:34;13.60;58.20
13569;DHT22;6856;51.460;7.158;2022-12-29T15:27:15;13.60;58.20
13569;DHT22;6856;51.460;7.158;2022-12-29T15:30:03;13.60;58.10
13569;DHT22;6856;51.460;7.158;2022-12-29T15:32:50;13.40;58.00
13569;DHT22;6856;51.460;7.158;2022-12-29T15:35:28;13.50;58.00
13569;DHT22;6856;51.460;7.158;2022-12-29T15:38:15;13.50;58.10
13569;DHT22;6856;51.460;7.158;2022-12-29T15:41:11;13.50;57.90
13569;DHT22;6856;51.460;7.158;2022-12-29T15:44:04;13.50;58.20
13569;DHT22;6856;51.460;7.158;2022-12-29T15:46:45;13.30;57.90
13569;DHT22;6856;51.460;7.158;2022-12-29T15:49:23;13.50;57.80
13569;DHT22;6856;51.460;7.158;2022-12-29T15:52:06;13.50;58.10
13569;DHT22;6856;51.460;7.158;2022-12-29T15:54:43;13.50;58.30
13569;DHT22;6856;51.460;7.158;2022-12-29T15:57:22;13.40;58.10
13569;DHT22;6856;51.460;7.158;2022-12-29T16:00:01;13.40;58.10
13569;DHT22;6856;51.460;7.158;2022-12-29T16:02:37;13.40;57.90
13569;DHT22;6856;51.460;7.158;2022-12-29T16:05:15;13.40;58.20
13569;DHT22;6856;51.460;7.158;2022-12-29T16:07:55;13.40;58.20
13569;DHT22;6856;51.460;7.158;2022-12-29T16:10:37;13.40;58.20
13569;DHT22;6856;51.460;7.158;2022-12-29T16:13:16;13.40;58.10
13569;DHT22;6856;51.460;7.158;2022-12-29T16:15:59;13.40;58.10
13569;DHT22;6856;51.460;7.158;2022-12-29T16:18:37;13.20;58.00
13569;DHT22;6856;51.460;7.158;2022-12-29T16:21:18;13.40;58.00
13569;DHT22;6856;51.460;7.158;2022-12-29T16:27:32;13.30;57.90
13569;DHT22;6856;51.460;7.158;2022-12-29T16:30:21;13.30;57.60
13569;DHT22;6856;51.460;7.158;2022-12-29T16:33:05;13.30;57.90
13569;DHT22;6856;51.460;7.158;2022-12-29T16:36:29;13.30;57.40
13569;DHT22;6856;51.460;7.158;2022-12-29T16:39:34;13.20;57.80
13569;DHT22;6856;51.460;7.158;2022-12-29T16:42:47;13.20;57.80
13569;DHT22;6856;51.460;7.158;2022-12-29T16:48:58;13.10;58.00
13569;DHT22;6856;51.460;7.158;2022-12-29T16:52:16;13.10;57.80
13569;DHT22;6856;51.460;7.158;2022-12-29T16:54:57;13.10;58.10
13569;DHT22;6856;51.460;7.158;2022-12-29T16:57:43;13.00;57.90
13569;DHT22;6856;51.460;7.158;2022-12-29T17:00:22;13.00;57.30
13569;DHT22;6856;51.460;7.158;2022-12-29T17:03:09;13.00;57.70
13569;DHT22;6856;51.460;7.158;2022-12-29T17:05:50;13.00;57.60
13569;DHT22;6856;51.460;7.158;2022-12-29T17:08:40;13.00;57.40
13569;DHT22;6856;51.460;7.158;2022-12-29T17:11:23;13.00;58.00
13569;DHT22;6856;51.460;7.158;2022-12-29T17:14:43;13.00;57.90
13569;DHT22;6856;51.460;7.158;2022-12-29T17:17:33;13.00;57.80
13569;DHT22;6856;51.460;7.158;2022-12-29T17:20:21;12.90;57.50
13569;DHT22;6856;51.460;7.158;2022-12-29T17:23:16;12.90;58.00
13569;DHT22;6856;51.460;7.158;2022-12-29T17:25:57;12.90;57.90
13569;DHT22;6856;51.460;7.158;2022-12-29T17:28:32;12.90;57.50
13569;DHT22;6856;51.460;7.158;2022-12-29T17:31:18;12.90;57.40
13569;DHT22;6856;51.460;7.158;2022-12-29T17:33:54;12.90;57.90
13569;DHT22;6856;51.460;7.158;2022-12-29T17:36:30;12.90;57.30
13569;DHT22;6856;51.460;7.158;2022-12-29T17:39:08;12.90;57.80
13569;DHT22;6856;51.460;7.158;2022-12-29T17:41:53;12.80;58.00
13569;DHT22;6856;51.460;7.158;2022-12-29T17:44:36;12.80;58.10
13569;DHT22;6856;51.460;7.158;2022-12-29T17:47:22;12.80;57.70
13569;DHT22;6856;51.460;7.158;2022-12-29T17:49:57;12.80;58.10
13569;DHT22;6856;51.460;7.158;2022-12-29T17:52:34;12.70;57.90
13569;DHT22;6856;51.460;7.158;2022-12-29T17:55:15;12.60;58.60
13569;DHT22;6856;51.460;7.158;2022-12-29T17:57:55;12.40;57.80
13569;DHT22;6856;51.460;7.158;2022-12-29T18:00:31;12.30;58.80
13569;DHT22;6856;51.460;7.158;2022-12-29T18:03:22;12.30;58.40
13569;DHT22;6856;51.460;7.158;2022-12-29T18:06:03;12.10;59.00
13569;DHT22;6856;51.460;7.158;2022-12-29T18:08:41;12.00;59.40
13569;DHT22;6856;51.460;7.158;2022-12-29T18:11:27;12.00;59.60
13569;DHT22;6856;51.460;7.158;2022-12-29T18:14:07;11.90;60.30
13569;DHT22;6856;51.460;7.158;2022-12-29T18:16:51;11.80;60.40
13569;DHT22;6856;51.460;7.158;2022-12-29T18:19:32;11.90;60.50
13569;DHT22;6856;51.460;7.158;2022-12-29T18:22:10;11.70;60.50
13569;DHT22;6856;51.460;7.158;2022-12-29T18:24:52;11.60;59.80
13569;DHT22;6856;51.460;7.158;2022-12-29T18:27:31;11.60;60.60
13569;DHT22;6856;51.460;7.158;2022-12-29T18:30:11;11.50;61.20
13569;DHT22;6856;51.460;7.158;2022-12-29T18:32:52;11.50;61.60
13569;DHT22;6856;51.460;7.158;2022-12-29T18:39:12;11.40;62.40
13569;DHT22;6856;51.460;7.158;2022-12-29T18:41:48;11.30;62.00
13569;DHT22;6856;51.460;7.158;2022-12-29T18:44:27;11.30;61.90
13569;DHT22;6856;51.460;7.158;2022-12-29T18:47:03;11.30;61.90
13569;DHT22;6856;51.460;7.158;2022-12-29T18:49:38;11.20;61.80
13569;DHT22;6856;51.460;7.158;2022-12-29T18:52:19;11.20;62.20
13569;DHT22;6856;51.460;7.158;2022-12-29T18:54:55;11.10;61.80
13569;DHT22;6856;51.460;7.158;2022-12-29T18:57:42;11.20;62.70
13569;DHT22;6856;51.460;7.158;2022-12-29T19:00:20;11.10;62.60
13569;DHT22;6856;51.460;7.158;2022-12-29T19:02:56;11.10;62.50
13569;DHT22;6856;51.460;7.158;2022-12-29T19:05:36;10.90;62.00
13569;DHT22;6856;51.460;7.158;2022-12-29T19:08:23;11.10;62.60
13569;DHT22;6856;51.460;7.158;2022-12-29T19:11:00;11.10;62.60
13569;DHT22;6856;51.460;7.158;2022-12-29T19:13:40;11.00;63.00
13569;DHT22;6856;51.460;7.158;2022-12-29T19:16:21;11.00;62.40
13569;DHT22;6856;51.460;7.158;2022-12-29T19:18:58;11.00;62.60
13569;DHT22;6856;51.460;7.158;2022-12-29T19:21:42;11.00;62.30
13569;DHT22;6856;51.460;7.158;2022-12-29T19:24:19;11.00;62.50
13569;DHT22;6856;51.460;7.158;2022-12-29T19:27:12;11.00;60.70
13569;DHT22;6856;51.460;7.158;2022-12-29T19:29:47;11.00;62.20
13569;DHT22;6856;51.460;7.158;2022-12-29T19:32:21;11.10;62.20
13569;DHT22;6856;51.460;7.158;2022-12-29T19:34:58;11.00;61.80
13569;DHT22;6856;51.460;7.158;2022-12-29T19:37:35;11.00;62.00
13569;DHT22;6856;51.460;7.158;2022-12-29T19:40:17;11.00;61.00
13569;DHT22;6856;51.460;7.158;2022-12-29T19:42:56;11.00;61.30
13569;DHT22;6856;51.460;7.158;2022-12-29T19:45:37;11.00;60.40
13569;DHT22;6856;51.460;7.158;2022-12-29T19:48:27;11.00;62.20
13569;DHT22;6856;51.460;7.158;2022-12-29T19:51:08;11.00;61.30
13569;DHT22;6856;51.460;7.158;2022-12-29T19:54:00;11.00;60.90
13569;DHT22;6856;51.460;7.158;2022-12-29T19:56:46;11.00;61.40
13569;DHT22;6856;51.460;7.158;2022-12-29T19:59:22;11.00;61.40
13569;DHT22;6856;51.460;7.158;2022-12-29T20:01:59;11.00;60.50
13569;DHT22;6856;51.460;7.158;2022-12-29T20:04:36;10.80;61.30
13569;DHT22;6856;51.460;7.158;2022-12-29T20:07:13;11.00;61.20
13569;DHT22;6856;51.460;7.158;2022-12-29T20:09:50;11.00;61.50
13569;DHT22;6856;51.460;7.158;2022-12-29T20:12:36;11.00;61.20